createdAt,value
2023-04-05T00:05:46.223Z,54.26
2023-04-05T00:20:51.250Z,54.96
2023-04-05T00:35:54.372Z,54.94
2023-04-05T00:50:58.351Z,55.60
2023-04-05T01:06:10.035Z,56.05
2023-04-05T01:21:34.649Z,56.35
2023-04-05T01:36:42.786Z,56.75
2023-04-05T01:51:45.931Z,57.37
2023-04-05T02:06:49.152Z,57.32
2023-04-05T02:21:56.636Z,57.25
2023-04-05T02:36:59.911Z,57.47
2023-04-05T02:52:03.132Z,57.91
2023-04-05T03:07:08.338Z,57.79
2023-04-05T03:22:14.107Z,57.89
2023-04-05T03:37:17.421Z,58.16
2023-04-05T03:52:25.825Z,58.30
2023-04-05T04:07:29.229Z,58.74
2023-04-05T04:22:38.906Z,58.75
2023-04-05T04:37:58.759Z,58.80
2023-04-05T04:53:37.169Z,59.11
2023-04-05T05:08:40.655Z,59.33
2023-04-05T05:23:43.766Z,59.62
2023-04-05T05:38:47.847Z,60.10
2023-04-05T05:53:51.497Z,60.79
2023-04-05T06:08:54.603Z,60.31
2023-04-05T06:23:57.784Z,59.58
2023-04-05T06:39:01.209Z,59.53
2023-04-05T06:54:04.394Z,59.17
2023-04-05T07:09:07.553Z,58.50
2023-04-05T07:24:10.922Z,58.28
2023-04-05T07:39:14.176Z,57.55
2023-04-05T07:54:17.308Z,56.72
2023-04-05T08:09:20.972Z,55.50
2023-04-05T08:24:24.190Z,53.17
2023-04-05T08:39:27.415Z,51.57
2023-04-05T08:54:31.092Z,48.10
2023-04-05T09:09:37.228Z,47.25
2023-04-05T09:24:42.866Z,45.01
2023-04-05T09:39:49.907Z,45.46
2023-04-05T09:54:58.274Z,45.56
2023-04-05T10:10:02.379Z,43.99
2023-04-05T10:25:10.626Z,44.28
2023-04-05T10:40:14.779Z,43.81
2023-04-05T10:55:18.324Z,44.32
2023-04-05T11:10:21.939Z,44.16
2023-04-05T11:25:25.422Z,43.41
2023-04-05T11:40:35.203Z,43.79
2023-04-05T11:55:39.552Z,43.69
2023-04-05T12:10:44.140Z,43.79
2023-04-05T12:25:51.200Z,43.77
2023-04-05T12:40:55.196Z,43.96
2023-04-05T12:55:59.122Z,44.37
2023-04-05T13:11:02.365Z,44.24
2023-04-05T13:26:06.613Z,44.98
2023-04-05T13:41:09.859Z,44.62
2023-04-05T13:56:12.936Z,45.06
2023-04-05T14:11:16.314Z,45.06
2023-04-05T14:26:19.755Z,45.15
2023-04-05T14:41:23.113Z,45.27
2023-04-05T14:56:26.615Z,45.44
2023-04-05T15:11:30.353Z,45.18
2023-04-05T15:26:33.954Z,45.13
2023-04-05T15:41:37.490Z,44.96
2023-04-05T15:56:40.728Z,44.79
2023-04-05T16:11:44.377Z,44.89
2023-04-05T16:26:47.668Z,45.16
2023-04-05T16:41:50.861Z,44.93
2023-04-05T16:56:54.436Z,45.33
2023-04-05T17:11:58.335Z,45.74
2023-04-05T17:27:02.848Z,46.23
2023-04-05T17:42:06.698Z,46.66
2023-04-05T18:00:45.213Z,47.13
2023-04-05T18:15:52.932Z,47.39
2023-04-05T18:30:57.033Z,47.81
2023-04-05T18:46:00.834Z,48.56
2023-04-05T19:01:06.139Z,49.06
2023-04-05T19:16:09.647Z,49.14
2023-04-05T19:31:16.468Z,49.66
2023-04-05T19:46:20.013Z,48.97
2023-04-05T20:01:42.196Z,48.83
2023-04-05T20:16:46.450Z,49.84
2023-04-05T20:31:49.713Z,50.63
2023-04-05T20:46:58.530Z,51.16
2023-04-05T21:02:04.693Z,51.72
2023-04-05T21:17:08.385Z,51.52
2023-04-05T21:32:11.506Z,51.33
2023-04-05T21:47:14.781Z,51.59
2023-04-05T22:02:18.035Z,52.13
2023-04-05T22:17:21.311Z,52.37
2023-04-05T22:32:24.466Z,53.07
2023-04-05T22:47:27.640Z,53.26
2023-04-05T23:02:30.836Z,54.31
2023-04-05T23:17:34.038Z,54.63
2023-04-05T23:32:37.177Z,54.94
2023-04-05T23:47:40.816Z,55.16
